Terminal Aerodrome Forecast
Issued by NWS

Home | Current Version | Previous Version | Text Only | Print | Product List | Glossary On
Versions: 1 2 3 4 5 6 7 8 9 10 11 12 13 14 15 16 17
000
FTUS46 KSGX 110500
TAFCRQ
TAF
KCRQ 110520Z 1106/1206 VRB04KT P6SM OVC013
     FM111700 VRB04KT P6SM SCT013
     FM111900 26009KT P6SM SKC
     FM120200 VRB04KT P6SM OVC013=

USA.gov is the U.S. government's official web portal to all federal, state and local government web resources and services.